Archival Weather

South Haven Area Rgnl

South Haven, Michigan (KLWA)

Report from: Tuesday, September 19, 2023 1:35 PM EDT
Current time: Tuesday, July 16, 2024 4:29 AM EDT

Current weather – Weather history – Daily summaries
Weather forecast

Present weatherDrizzle
Temperature17.3°C (63.1°F)
Dew point13.8°C (56.8°F)
Winds 4 kts (2.1 m/s, 4.6 mph) South-Southwest (200°)
Visibility10 mi. (16.1 km)
Clouds Scattered clouds 2,400 ft. (732 m)
Ceiling: Broken clouds 7,000 ft. (2,134 m)
Overcast 9,000 ft. (2,743 m)
Altimeter30.08 in.Hg (1019 mB)
Relative humidity80 %
Density altitude309 ft. (94 m)
Remarks Fully automated report
Automated weather observing station with precipitation discriminator
Flight conditions Visual Meteorological Conditions
Raw dataKLWA 191735Z AUTO 20004KT 10SM DZ SCT024 BKN070 OVC090 17/14 A3008 RMK AO2 T01730138
An error has occurred. This application may no longer respond until reloaded. Reload 🗙